Briefing drone pour Beauzac

Rechercher une autre localisation

Conditions de vol :


Nous sommes le : Dimanche 24 octobre 2021
Il est 18:52 UTC (20:52 LT)

Lever de soleil : 05:45 UTC (07:45 LT)
Coucher de soleil : 17:10 UTC (19:10 LT)

Météo

L'essentiel des conditions de vol

VIGILANCE MÉTÉO FRANCE - Haute-Loire (43)
Pas de vigilances particulieres
METAR de LFMH
LFMH 241830Z AUTO 18007KT CAVOK 10/07 Q1022

Date d'émission: 24/10/2021
Heure d'émission: 18:30 UTC
Vent: 180° pour 7 KT (13 km/h)
Visibilité horizontale: > 10 km
Plafond : Plafond et visibilité OK (CAVOK)
Température: 10 °C
Point de rosée: 7 °C
Humidité: 82%
Pression (QNH): 1022 hPa
TAF de LFMH
LFMH 161901Z 1619/1712 CNL

Conditions prévues :

Heure d'émission : Bulletin éffectué le 16 à 19:00 UTC
Prévision : Valide du 16 a 19:00 UTC au 17 a 12:00 UTC
Nuages : à 0ft (0 m)
WEBCAM POUR BEAUZAC

Réglementation

Voler en sécurité

CARTES AERONAUTIQUE 1/500.000
CARTES VAC (LFMH)
SUP AIP




Chargement des AIP...
NOTAM (BEAUZAC + Terrain à proximité / FIR )




Chargement des NOTAMS...
CONTACT PREFECTURE 43


Avertissement : Les données mises à disposition sont indicatives. Oxygène Drone ne pourra être tenu responsable de dégâts causés aux biens et aux personnes.